sensor_id;sensor_type;location;lat;lon;timestamp;pressure;altitude;pressure_sealevel;temperature;humidity
31346;BME280;21711;49.708;18.568;2023-03-03T00:01:59;97502.97;;;-1.64;100.00
31346;BME280;21711;49.708;18.568;2023-03-03T00:04:26;97496.91;;;-1.72;100.00
31346;BME280;21711;49.708;18.568;2023-03-03T00:06:53;97500.44;;;-1.79;100.00
31346;BME280;21711;49.708;18.568;2023-03-03T00:09:21;97494.41;;;-1.87;100.00
31346;BME280;21711;49.708;18.568;2023-03-03T00:11:54;97498.31;;;-1.69;100.00
31346;BME280;21711;49.708;18.568;2023-03-03T00:14:28;97503.50;;;-1.47;100.00
31346;BME280;21711;49.708;18.568;2023-03-03T00:16:57;97505.28;;;-1.48;100.00
31346;BME280;21711;49.708;18.568;2023-03-03T00:19:26;97500.06;;;-1.54;100.00
31346;BME280;21711;49.708;18.568;2023-03-03T00:21:55;97492.00;;;-1.66;100.00
31346;BME280;21711;49.708;18.568;2023-03-03T00:24:36;97490.75;;;-1.70;100.00
31346;BME280;21711;49.708;18.568;2023-03-03T00:27:34;97500.75;;;-1.67;100.00
31346;BME280;21711;49.708;18.568;2023-03-03T00:30:02;97494.00;;;-1.62;100.00
31346;BME280;21711;49.708;18.568;2023-03-03T00:32:41;97503.38;;;-1.61;100.00
31346;BME280;21711;49.708;18.568;2023-03-03T00:35:32;97502.25;;;-1.51;100.00
31346;BME280;21711;49.708;18.568;2023-03-03T00:38:16;97501.66;;;-1.53;100.00
31346;BME280;21711;49.708;18.568;2023-03-03T00:40:46;97503.84;;;-1.50;100.00
31346;BME280;21711;49.708;18.568;2023-03-03T00:43:25;97510.63;;;-1.56;100.00
31346;BME280;21711;49.708;18.568;2023-03-03T00:45:56;97510.88;;;-1.73;100.00
31346;BME280;21711;49.708;18.568;2023-03-03T00:53:49;97503.31;;;-1.46;100.00
31346;BME280;21711;49.708;18.568;2023-03-03T00:56:17;97505.41;;;-1.27;100.00
31346;BME280;21711;49.708;18.568;2023-03-03T00:58:44;97498.81;;;-1.30;100.00
31346;BME280;21711;49.708;18.568;2023-03-03T01:01:17;97508.19;;;-1.29;100.00
31346;BME280;21711;49.708;18.568;2023-03-03T01:03:49;97497.16;;;-1.38;100.00
31346;BME280;21711;49.708;18.568;2023-03-03T01:06:16;97498.75;;;-1.37;100.00
31346;BME280;21711;49.708;18.568;2023-03-03T01:08:43;97494.53;;;-1.73;100.00
31346;BME280;21711;49.708;18.568;2023-03-03T01:11:15;97503.50;;;-1.69;100.00
31346;BME280;21711;49.708;18.568;2023-03-03T01:13:48;97503.28;;;-1.74;100.00
31346;BME280;21711;49.708;18.568;2023-03-03T01:16:17;97503.50;;;-1.69;100.00
31346;BME280;21711;49.708;18.568;2023-03-03T01:18:45;97504.34;;;-1.68;100.00
31346;BME280;21711;49.708;18.568;2023-03-03T01:21:12;97500.91;;;-1.76;100.00
31346;BME280;21711;49.708;18.568;2023-03-03T01:23:39;97488.78;;;-1.90;100.00
31346;BME280;21711;49.708;18.568;2023-03-03T01:26:07;97485.53;;;-1.99;100.00
31346;BME280;21711;49.708;18.568;2023-03-03T01:28:34;97474.16;;;-1.98;100.00
31346;BME280;21711;49.708;18.568;2023-03-03T01:31:04;97481.88;;;-2.05;100.00
31346;BME280;21711;49.708;18.568;2023-03-03T01:33:34;97481.44;;;-2.08;100.00
31346;BME280;21711;49.708;18.568;2023-03-03T01:36:03;97473.44;;;-2.14;100.00
31346;BME280;21711;49.708;18.568;2023-03-03T01:38:30;97468.06;;;-2.12;100.00
31346;BME280;21711;49.708;18.568;2023-03-03T01:40:59;97468.59;;;-2.17;100.00
31346;BME280;21711;49.708;18.568;2023-03-03T01:43:28;97471.41;;;-2.18;100.00
31346;BME280;21711;49.708;18.568;2023-03-03T01:48:35;97462.94;;;-2.27;100.00
31346;BME280;21711;49.708;18.568;2023-03-03T01:51:16;97453.84;;;-2.38;100.00
31346;BME280;21711;49.708;18.568;2023-03-03T01:53:53;97451.16;;;-2.30;100.00
31346;BME280;21711;49.708;18.568;2023-03-03T01:56:21;97453.56;;;-2.06;100.00
31346;BME280;21711;49.708;18.568;2023-03-03T01:58:59;97443.75;;;-1.89;100.00
31346;BME280;21711;49.708;18.568;2023-03-03T02:01:29;97442.84;;;-1.75;100.00
31346;BME280;21711;49.708;18.568;2023-03-03T02:03:58;97438.72;;;-1.62;100.00
31346;BME280;21711;49.708;18.568;2023-03-03T02:06:40;97441.41;;;-1.49;100.00
31346;BME280;21711;49.708;18.568;2023-03-03T02:09:44;97445.59;;;-1.54;100.00
31346;BME280;21711;49.708;18.568;2023-03-03T02:12:18;97442.19;;;-1.55;100.00
31346;BME280;21711;49.708;18.568;2023-03-03T02:14:46;97443.00;;;-1.54;100.00
31346;BME280;21711;49.708;18.568;2023-03-03T02:17:13;97442.78;;;-1.53;100.00
31346;BME280;21711;49.708;18.568;2023-03-03T02:19:58;97453.16;;;-1.53;100.00
31346;BME280;21711;49.708;18.568;2023-03-03T02:22:49;97452.19;;;-1.52;100.00
31346;BME280;21711;49.708;18.568;2023-03-03T02:28:30;97446.78;;;-1.50;100.00
31346;BME280;21711;49.708;18.568;2023-03-03T02:31:07;97443.38;;;-1.57;100.00
31346;BME280;21711;49.708;18.568;2023-03-03T02:33:45;97442.50;;;-1.65;100.00
31346;BME280;21711;49.708;18.568;2023-03-03T02:36:38;97450.16;;;-1.85;100.00
31346;BME280;21711;49.708;18.568;2023-03-03T02:39:26;97444.09;;;-1.92;100.00
31346;BME280;21711;49.708;18.568;2023-03-03T02:42:19;97443.69;;;-1.96;100.00
31346;BME280;21711;49.708;18.568;2023-03-03T02:44:52;97453.63;;;-2.00;100.00
31346;BME280;21711;49.708;18.568;2023-03-03T02:47:19;97450.59;;;-2.03;100.00
31346;BME280;21711;49.708;18.568;2023-03-03T02:49:47;97446.69;;;-2.14;100.00
31346;BME280;21711;49.708;18.568;2023-03-03T02:52:14;97450.16;;;-2.29;100.00
31346;BME280;21711;49.708;18.568;2023-03-03T02:54:45;97449.00;;;-2.26;100.00
31346;BME280;21711;49.708;18.568;2023-03-03T02:57:13;97453.22;;;-2.25;100.00
31346;BME280;21711;49.708;18.568;2023-03-03T02:59:40;97444.38;;;-2.31;100.00
31346;BME280;21711;49.708;18.568;2023-03-03T03:02:11;97442.16;;;-2.56;100.00
31346;BME280;21711;49.708;18.568;2023-03-03T03:04:38;97435.56;;;-2.73;100.00
31346;BME280;21711;49.708;18.568;2023-03-03T03:07:06;97440.72;;;-2.58;100.00
31346;BME280;21711;49.708;18.568;2023-03-03T03:09:36;97441.75;;;-2.53;100.00
31346;BME280;21711;49.708;18.568;2023-03-03T03:12:03;97438.25;;;-2.67;100.00
31346;BME280;21711;49.708;18.568;2023-03-03T03:14:33;97441.81;;;-2.68;100.00
31346;BME280;21711;49.708;18.568;2023-03-03T03:17:01;97436.56;;;-2.74;100.00
31346;BME280;21711;49.708;18.568;2023-03-03T03:19:28;97439.25;;;-2.83;100.00
31346;BME280;21711;49.708;18.568;2023-03-03T03:21:59;97444.88;;;-2.79;100.00
31346;BME280;21711;49.708;18.568;2023-03-03T03:24:27;97442.91;;;-2.77;100.00
31346;BME280;21711;49.708;18.568;2023-03-03T03:27:00;97435.69;;;-2.82;100.00
31346;BME280;21711;49.708;18.568;2023-03-03T03:29:27;97440.00;;;-2.89;100.00
31346;BME280;21711;49.708;18.568;2023-03-03T03:31:54;97443.63;;;-2.83;100.00
31346;BME280;21711;49.708;18.568;2023-03-03T03:34:22;97449.34;;;-2.88;100.00
31346;BME280;21711;49.708;18.568;2023-03-03T03:36:50;97445.94;;;-2.88;100.00
31346;BME280;21711;49.708;18.568;2023-03-03T03:39:19;97444.72;;;-2.93;100.00
31346;BME280;21711;49.708;18.568;2023-03-03T03:41:49;97449.00;;;-3.00;100.00
31346;BME280;21711;49.708;18.568;2023-03-03T03:44:16;97453.09;;;-2.91;100.00
31346;BME280;21711;49.708;18.568;2023-03-03T03:46:43;97457.81;;;-2.79;100.00
31346;BME280;21711;49.708;18.568;2023-03-03T03:49:11;97457.72;;;-2.71;100.00
31346;BME280;21711;49.708;18.568;2023-03-03T03:51:38;97460.53;;;-2.87;100.00
31346;BME280;21711;49.708;18.568;2023-03-03T03:54:11;97459.03;;;-2.97;100.00
31346;BME280;21711;49.708;18.568;2023-03-03T03:56:39;97455.78;;;-2.99;100.00
31346;BME280;21711;49.708;18.568;2023-03-03T03:59:07;97455.25;;;-2.94;100.00
31346;BME280;21711;49.708;18.568;2023-03-03T04:01:37;97451.22;;;-2.82;100.00
31346;BME280;21711;49.708;18.568;2023-03-03T04:04:04;97451.53;;;-2.70;100.00
31346;BME280;21711;49.708;18.568;2023-03-03T04:06:33;97446.81;;;-2.66;100.00
31346;BME280;21711;49.708;18.568;2023-03-03T04:09:01;97448.09;;;-2.77;100.00
31346;BME280;21711;49.708;18.568;2023-03-03T04:11:29;97441.25;;;-2.85;100.00
31346;BME280;21711;49.708;18.568;2023-03-03T04:13:57;97441.59;;;-2.88;100.00
31346;BME280;21711;49.708;18.568;2023-03-03T04:16:24;97447.59;;;-3.02;100.00
31346;BME280;21711;49.708;18.568;2023-03-03T04:18:52;97450.09;;;-2.94;100.00
31346;BME280;21711;49.708;18.568;2023-03-03T04:21:20;97442.75;;;-2.91;100.00
31346;BME280;21711;49.708;18.568;2023-03-03T04:23:49;97448.19;;;-3.00;100.00
31346;BME280;21711;49.708;18.568;2023-03-03T04:26:17;97454.44;;;-2.95;100.00
31346;BME280;21711;49.708;18.568;2023-03-03T04:28:46;97449.00;;;-2.85;100.00
31346;BME280;21711;49.708;18.568;2023-03-03T04:31:13;97441.94;;;-2.91;100.00
31346;BME280;21711;49.708;18.568;2023-03-03T04:33:40;97443.00;;;-2.85;100.00
31346;BME280;21711;49.708;18.568;2023-03-03T04:36:08;97434.34;;;-2.93;100.00
31346;BME280;21711;49.708;18.568;2023-03-03T04:38:36;97422.31;;;-3.00;100.00
31346;BME280;21711;49.708;18.568;2023-03-03T04:41:04;97422.78;;;-2.97;100.00
31346;BME280;21711;49.708;18.568;2023-03-03T04:43:35;97421.06;;;-3.05;100.00
31346;BME280;21711;49.708;18.568;2023-03-03T04:46:04;97438.66;;;-3.00;100.00
31346;BME280;21711;49.708;18.568;2023-03-03T04:48:31;97441.25;;;-3.00;100.00
31346;BME280;21711;49.708;18.568;2023-03-03T04:50:59;97436.06;;;-3.00;100.00
31346;BME280;21711;49.708;18.568;2023-03-03T04:53:26;97441.44;;;-3.01;100.00
31346;BME280;21711;49.708;18.568;2023-03-03T04:55:54;97441.69;;;-2.96;100.00
31346;BME280;21711;49.708;18.568;2023-03-03T04:58:21;97435.72;;;-2.97;100.00
31346;BME280;21711;49.708;18.568;2023-03-03T05:00:55;97444.09;;;-2.95;100.00
31346;BME280;21711;49.708;18.568;2023-03-03T05:03:25;97450.34;;;-2.89;100.00
31346;BME280;21711;49.708;18.568;2023-03-03T05:05:53;97455.44;;;-2.96;100.00
31346;BME280;21711;49.708;18.568;2023-03-03T05:08:20;97460.34;;;-3.01;100.00
31346;BME280;21711;49.708;18.568;2023-03-03T05:10:52;97457.94;;;-3.02;100.00
31346;BME280;21711;49.708;18.568;2023-03-03T05:13:20;97462.47;;;-3.05;100.00
31346;BME280;21711;49.708;18.568;2023-03-03T05:15:52;97466.44;;;-3.09;100.00
31346;BME280;21711;49.708;18.568;2023-03-03T05:18:25;97458.94;;;-3.04;100.00
31346;BME280;21711;49.708;18.568;2023-03-03T05:20:52;97465.22;;;-2.91;100.00
31346;BME280;21711;49.708;18.568;2023-03-03T05:23:20;97463.81;;;-2.79;100.00
31346;BME280;21711;49.708;18.568;2023-03-03T05:25:48;97468.69;;;-2.69;100.00
31346;BME280;21711;49.708;18.568;2023-03-03T05:28:16;97473.25;;;-2.71;100.00
31346;BME280;21711;49.708;18.568;2023-03-03T05:30:44;97470.13;;;-2.66;100.00
31346;BME280;21711;49.708;18.568;2023-03-03T05:33:14;97481.16;;;-2.57;100.00
31346;BME280;21711;49.708;18.568;2023-03-03T05:35:42;97484.28;;;-2.62;100.00
31346;BME280;21711;49.708;18.568;2023-03-03T05:38:10;97484.38;;;-2.55;100.00
31346;BME280;21711;49.708;18.568;2023-03-03T05:40:39;97482.09;;;-2.43;100.00
31346;BME280;21711;49.708;18.568;2023-03-03T05:43:06;97483.78;;;-2.35;100.00
31346;BME280;21711;49.708;18.568;2023-03-03T05:45:33;97493.66;;;-2.24;100.00
31346;BME280;21711;49.708;18.568;2023-03-03T05:48:01;97503.72;;;-2.14;100.00
31346;BME280;21711;49.708;18.568;2023-03-03T05:50:30;97491.75;;;-2.15;100.00
31346;BME280;21711;49.708;18.568;2023-03-03T05:52:58;97491.59;;;-1.92;100.00
31346;BME280;21711;49.708;18.568;2023-03-03T05:55:25;97504.59;;;-1.85;100.00
31346;BME280;21711;49.708;18.568;2023-03-03T05:57:52;97512.16;;;-1.62;100.00
31346;BME280;21711;49.708;18.568;2023-03-03T06:00:20;97512.97;;;-1.61;100.00
31346;BME280;21711;49.708;18.568;2023-03-03T06:02:47;97516.56;;;-1.84;100.00
31346;BME280;21711;49.708;18.568;2023-03-03T06:05:15;97512.56;;;-1.87;100.00
31346;BME280;21711;49.708;18.568;2023-03-03T06:07:42;97510.44;;;-1.98;100.00
31346;BME280;21711;49.708;18.568;2023-03-03T06:10:11;97520.88;;;-1.91;100.00
31346;BME280;21711;49.708;18.568;2023-03-03T06:12:40;97523.19;;;-1.81;100.00
31346;BME280;21711;49.708;18.568;2023-03-03T06:15:08;97531.13;;;-1.83;100.00
31346;BME280;21711;49.708;18.568;2023-03-03T06:17:36;97535.81;;;-1.72;100.00
31346;BME280;21711;49.708;18.568;2023-03-03T06:20:04;97530.47;;;-1.92;100.00
31346;BME280;21711;49.708;18.568;2023-03-03T06:22:32;97532.25;;;-1.92;100.00
31346;BME280;21711;49.708;18.568;2023-03-03T06:25:00;97534.00;;;-2.00;100.00
31346;BME280;21711;49.708;18.568;2023-03-03T06:27:27;97534.59;;;-1.98;100.00
31346;BME280;21711;49.708;18.568;2023-03-03T06:29:54;97546.03;;;-1.92;100.00
31346;BME280;21711;49.708;18.568;2023-03-03T06:32:22;97551.38;;;-1.93;100.00
31346;BME280;21711;49.708;18.568;2023-03-03T06:34:49;97558.59;;;-1.89;100.00
31346;BME280;21711;49.708;18.568;2023-03-03T06:37:17;97562.94;;;-1.96;100.00
31346;BME280;21711;49.708;18.568;2023-03-03T06:39:44;97566.75;;;-1.70;100.00
31346;BME280;21711;49.708;18.568;2023-03-03T06:42:11;97569.47;;;-1.78;100.00
31346;BME280;21711;49.708;18.568;2023-03-03T06:44:38;97582.03;;;-1.60;100.00
31346;BME280;21711;49.708;18.568;2023-03-03T06:47:06;97576.03;;;-1.82;100.00
31346;BME280;21711;49.708;18.568;2023-03-03T06:49:33;97588.38;;;-1.63;100.00
31346;BME280;21711;49.708;18.568;2023-03-03T06:52:10;97593.31;;;-1.46;100.00
31346;BME280;21711;49.708;18.568;2023-03-03T06:54:38;97598.88;;;-1.49;100.00
31346;BME280;21711;49.708;18.568;2023-03-03T06:57:31;97605.25;;;-1.52;100.00
31346;BME280;21711;49.708;18.568;2023-03-03T07:00:23;97621.28;;;-1.41;100.00
31346;BME280;21711;49.708;18.568;2023-03-03T07:03:11;97618.06;;;-1.22;100.00
31346;BME280;21711;49.708;18.568;2023-03-03T07:05:39;97611.97;;;-1.07;100.00
31346;BME280;21711;49.708;18.568;2023-03-03T07:08:20;97608.56;;;-1.08;100.00
31346;BME280;21711;49.708;18.568;2023-03-03T07:10:50;97612.88;;;-1.22;100.00
31346;BME280;21711;49.708;18.568;2023-03-03T07:13:26;97622.38;;;-1.29;100.00
31346;BME280;21711;49.708;18.568;2023-03-03T07:16:01;97623.72;;;-1.11;100.00
31346;BME280;21711;49.708;18.568;2023-03-03T07:18:59;97621.47;;;-1.21;100.00
31346;BME280;21711;49.708;18.568;2023-03-03T07:21:35;97618.53;;;-1.40;100.00
31346;BME280;21711;49.708;18.568;2023-03-03T07:24:29;97618.88;;;-1.21;100.00
31346;BME280;21711;49.708;18.568;2023-03-03T07:29:48;97610.88;;;-1.20;100.00
31346;BME280;21711;49.708;18.568;2023-03-03T07:34:55;97610.63;;;-1.25;100.00
31346;BME280;21711;49.708;18.568;2023-03-03T07:37:43;97614.75;;;-1.09;100.00
31346;BME280;21711;49.708;18.568;2023-03-03T07:40:34;97626.31;;;-1.11;100.00
31346;BME280;21711;49.708;18.568;2023-03-03T07:43:33;97624.72;;;-1.12;100.00
31346;BME280;21711;49.708;18.568;2023-03-03T07:46:26;97616.91;;;-0.84;100.00
31346;BME280;21711;49.708;18.568;2023-03-03T07:48:57;97616.75;;;-0.47;100.00
31346;BME280;21711;49.708;18.568;2023-03-03T07:51:26;97605.63;;;-0.34;100.00
31346;BME280;21711;49.708;18.568;2023-03-03T07:56:41;97581.16;;;-0.46;100.00
31346;BME280;21711;49.708;18.568;2023-03-03T07:59:28;97560.19;;;-0.45;100.00
31346;BME280;21711;49.708;18.568;2023-03-03T08:01:56;97558.44;;;-0.31;100.00
31346;BME280;21711;49.708;18.568;2023-03-03T08:04:48;97561.06;;;-0.17;100.00
31346;BME280;21711;49.708;18.568;2023-03-03T08:07:22;97557.50;;;-0.16;100.00
31346;BME280;21711;49.708;18.568;2023-03-03T08:10:00;97564.63;;;-0.32;100.00
31346;BME280;21711;49.708;18.568;2023-03-03T08:15:23;97550.78;;;-0.46;100.00
31346;BME280;21711;49.708;18.568;2023-03-03T08:17:53;97552.97;;;0.13;100.00
31346;BME280;21711;49.708;18.568;2023-03-03T08:23:12;97554.72;;;0.06;100.00
31346;BME280;21711;49.708;18.568;2023-03-03T08:25:40;97556.09;;;-0.12;100.00
31346;BME280;21711;49.708;18.568;2023-03-03T08:28:09;97557.72;;;-0.11;100.00
31346;BME280;21711;49.708;18.568;2023-03-03T08:30:37;97558.50;;;-0.10;100.00
31346;BME280;21711;49.708;18.568;2023-03-03T08:33:04;97555.69;;;-0.09;100.00
31346;BME280;21711;49.708;18.568;2023-03-03T08:35:32;97565.78;;;0.28;100.00
31346;BME280;21711;49.708;18.568;2023-03-03T08:38:00;97569.97;;;0.22;100.00
31346;BME280;21711;49.708;18.568;2023-03-03T08:40:27;97565.34;;;0.18;100.00
31346;BME280;21711;49.708;18.568;2023-03-03T08:42:55;97568.56;;;0.06;100.00
31346;BME280;21711;49.708;18.568;2023-03-03T08:45:25;97580.47;;;-0.20;100.00
31346;BME280;21711;49.708;18.568;2023-03-03T08:47:52;97582.44;;;-0.29;100.00
31346;BME280;21711;49.708;18.568;2023-03-03T08:50:20;97582.28;;;-0.20;100.00
31346;BME280;21711;49.708;18.568;2023-03-03T08:52:48;97571.03;;;-0.28;100.00
31346;BME280;21711;49.708;18.568;2023-03-03T08:55:15;97578.91;;;-0.07;100.00
31346;BME280;21711;49.708;18.568;2023-03-03T08:57:43;97577.34;;;0.05;100.00
31346;BME280;21711;49.708;18.568;2023-03-03T09:00:15;97574.94;;;-0.03;100.00
31346;BME280;21711;49.708;18.568;2023-03-03T09:02:43;97584.72;;;-0.54;100.00
31346;BME280;21711;49.708;18.568;2023-03-03T09:05:12;97587.38;;;-0.41;100.00
31346;BME280;21711;49.708;18.568;2023-03-03T09:07:39;97596.72;;;-0.11;100.00
31346;BME280;21711;49.708;18.568;2023-03-03T09:10:08;97594.16;;;0.09;100.00
31346;BME280;21711;49.708;18.568;2023-03-03T09:12:45;97600.09;;;-0.10;100.00
31346;BME280;21711;49.708;18.568;2023-03-03T09:15:25;97600.09;;;-0.10;100.00
31346;BME280;21711;49.708;18.568;2023-03-03T09:17:59;97605.47;;;-0.25;100.00
31346;BME280;21711;49.708;18.568;2023-03-03T09:20:40;97609.06;;;-0.20;100.00
31346;BME280;21711;49.708;18.568;2023-03-03T09:23:34;97611.50;;;-0.11;100.00
31346;BME280;21711;49.708;18.568;2023-03-03T09:31:45;97638.94;;;-0.02;100.00
31346;BME280;21711;49.708;18.568;2023-03-03T09:37:23;97611.38;;;-0.38;100.00
31346;BME280;21711;49.708;18.568;2023-03-03T09:39:55;97610.63;;;-0.68;100.00
31346;BME280;21711;49.708;18.568;2023-03-03T09:42:58;97616.09;;;-0.91;100.00
31346;BME280;21711;49.708;18.568;2023-03-03T09:56:49;97627.22;;;0.22;100.00
31346;BME280;21711;49.708;18.568;2023-03-03T09:59:29;97616.75;;;0.02;100.00
31346;BME280;21711;49.708;18.568;2023-03-03T10:05:16;97610.97;;;0.13;100.00
31346;BME280;21711;49.708;18.568;2023-03-03T10:17:03;97613.81;;;0.32;100.00
31346;BME280;21711;49.708;18.568;2023-03-03T10:19:38;97609.78;;;0.16;100.00
31346;BME280;21711;49.708;18.568;2023-03-03T10:25:29;97620.38;;;0.21;100.00
31346;BME280;21711;49.708;18.568;2023-03-03T10:37:27;97633.88;;;-0.17;100.00
31346;BME280;21711;49.708;18.568;2023-03-03T10:40:23;97636.66;;;-0.25;100.00
31346;BME280;21711;49.708;18.568;2023-03-03T10:52:43;97631.25;;;0.52;100.00
31346;BME280;21711;49.708;18.568;2023-03-03T11:01:55;97630.69;;;0.57;100.00
31346;BME280;21711;49.708;18.568;2023-03-03T11:15:54;97649.91;;;0.56;100.00
31346;BME280;21711;49.708;18.568;2023-03-03T11:18:49;97639.81;;;0.32;100.00
31346;BME280;21711;49.708;18.568;2023-03-03T11:21:44;97645.59;;;0.14;100.00
31346;BME280;21711;49.708;18.568;2023-03-03T11:24:33;97646.09;;;-0.11;100.00
31346;BME280;21711;49.708;18.568;2023-03-03T11:33:11;97629.38;;;0.05;100.00
31346;BME280;21711;49.708;18.568;2023-03-03T11:41:55;97638.53;;;0.90;100.00
31346;BME280;21711;49.708;18.568;2023-03-03T11:44:40;97627.66;;;0.39;100.00
31346;BME280;21711;49.708;18.568;2023-03-03T11:47:38;97642.69;;;0.58;100.00
31346;BME280;21711;49.708;18.568;2023-03-03T11:56:29;97637.19;;;0.12;100.00
31346;BME280;21711;49.708;18.568;2023-03-03T11:59:54;97640.47;;;-0.15;100.00
31346;BME280;21711;49.708;18.568;2023-03-03T12:02:41;97632.22;;;0.24;100.00
31346;BME280;21711;49.708;18.568;2023-03-03T12:05:47;97632.38;;;0.09;100.00
31346;BME280;21711;49.708;18.568;2023-03-03T12:09:57;97633.38;;;0.21;100.00
31346;BME280;21711;49.708;18.568;2023-03-03T12:12:03;97634.25;;;0.42;100.00
31346;BME280;21711;49.708;18.568;2023-03-03T12:21:17;97633.63;;;0.40;100.00
31346;BME280;21711;49.708;18.568;2023-03-03T12:28:57;97641.03;;;0.36;100.00
31346;BME280;21711;49.708;18.568;2023-03-03T12:34:50;97637.66;;;0.49;100.00
31346;BME280;21711;49.708;18.568;2023-03-03T12:40:32;97630.88;;;-0.14;100.00
31346;BME280;21711;49.708;18.568;2023-03-03T12:46:22;97621.22;;;0.35;100.00
31346;BME280;21711;49.708;18.568;2023-03-03T12:48:55;97623.84;;;0.49;100.00
31346;BME280;21711;49.708;18.568;2023-03-03T12:51:43;97623.03;;;0.48;100.00
31346;BME280;21711;49.708;18.568;2023-03-03T12:58:03;97618.25;;;0.45;100.00
31346;BME280;21711;49.708;18.568;2023-03-03T13:06:31;97617.22;;;0.26;100.00
31346;BME280;21711;49.708;18.568;2023-03-03T13:12:38;97615.34;;;-0.01;100.00
31346;BME280;21711;49.708;18.568;2023-03-03T13:15:32;97607.84;;;0.45;100.00
31346;BME280;21711;49.708;18.568;2023-03-03T13:18:47;97606.75;;;0.12;100.00
31346;BME280;21711;49.708;18.568;2023-03-03T13:21:39;97600.88;;;-0.17;100.00
31346;BME280;21711;49.708;18.568;2023-03-03T13:24:22;97610.53;;;0.03;100.00
31346;BME280;21711;49.708;18.568;2023-03-03T13:27:10;97597.97;;;0.13;100.00
31346;BME280;21711;49.708;18.568;2023-03-03T13:35:48;97598.59;;;0.16;100.00
31346;BME280;21711;49.708;18.568;2023-03-03T13:38:23;97593.75;;;0.12;100.00
31346;BME280;21711;49.708;18.568;2023-03-03T13:41:24;97603.38;;;0.19;100.00
31346;BME280;21711;49.708;18.568;2023-03-03T13:44:10;97600.81;;;0.39;100.00
31346;BME280;21711;49.708;18.568;2023-03-03T13:52:27;97595.81;;;0.58;100.00
31346;BME280;21711;49.708;18.568;2023-03-03T13:58:04;97587.38;;;0.22;100.00
31346;BME280;21711;49.708;18.568;2023-03-03T14:06:23;97583.16;;;0.07;100.00
31346;BME280;21711;49.708;18.568;2023-03-03T14:09:36;97580.97;;;0.24;100.00
31346;BME280;21711;49.708;18.568;2023-03-03T14:12:50;97581.16;;;0.03;100.00
31346;BME280;21711;49.708;18.568;2023-03-03T14:15:26;97582.13;;;0.02;100.00
31346;BME280;21711;49.708;18.568;2023-03-03T14:20:47;97574.84;;;-0.30;100.00
31346;BME280;21711;49.708;18.568;2023-03-03T14:26:09;97569.13;;;0.02;100.00
31346;BME280;21711;49.708;18.568;2023-03-03T14:28:43;97573.94;;;0.05;100.00
31346;BME280;21711;49.708;18.568;2023-03-03T14:31:38;97572.38;;;0.17;100.00
31346;BME280;21711;49.708;18.568;2023-03-03T14:37:17;97570.34;;;0.06;100.00
31346;BME280;21711;49.708;18.568;2023-03-03T14:42:55;97565.94;;;0.06;100.00
31346;BME280;21711;49.708;18.568;2023-03-03T14:45:39;97569.75;;;0.04;100.00
31346;BME280;21711;49.708;18.568;2023-03-03T14:48:20;97562.50;;;-0.01;100.00
31346;BME280;21711;49.708;18.568;2023-03-03T14:50:58;97562.66;;;-0.30;100.00
31346;BME280;21711;49.708;18.568;2023-03-03T14:56:28;97573.75;;;-0.56;100.00
31346;BME280;21711;49.708;18.568;2023-03-03T14:59:19;97575.47;;;-0.28;100.00
31346;BME280;21711;49.708;18.568;2023-03-03T15:02:02;97574.25;;;-0.25;100.00
31346;BME280;21711;49.708;18.568;2023-03-03T15:04:37;97583.19;;;-0.42;100.00
31346;BME280;21711;49.708;18.568;2023-03-03T15:07:36;97575.03;;;-0.32;100.00
31346;BME280;21711;49.708;18.568;2023-03-03T15:10:05;97580.22;;;-0.32;100.00
31346;BME280;21711;49.708;18.568;2023-03-03T15:12:38;97575.75;;;-0.51;100.00
31346;BME280;21711;49.708;18.568;2023-03-03T15:17:43;97576.44;;;-0.29;100.00
31346;BME280;21711;49.708;18.568;2023-03-03T15:20:45;97581.03;;;-0.31;100.00
31346;BME280;21711;49.708;18.568;2023-03-03T15:24:14;97575.91;;;-0.11;100.00
31346;BME280;21711;49.708;18.568;2023-03-03T15:27:09;97578.00;;;-0.42;100.00
31346;BME280;21711;49.708;18.568;2023-03-03T15:30:01;97571.53;;;-0.52;100.00
31346;BME280;21711;49.708;18.568;2023-03-03T15:35:50;97574.00;;;-0.44;100.00
31346;BME280;21711;49.708;18.568;2023-03-03T15:38:37;97579.69;;;-0.20;100.00
31346;BME280;21711;49.708;18.568;2023-03-03T15:41:39;97588.63;;;-0.36;100.00
31346;BME280;21711;49.708;18.568;2023-03-03T15:44:45;97586.53;;;-0.55;100.00
31346;BME280;21711;49.708;18.568;2023-03-03T15:50:46;97587.25;;;-0.68;100.00
31346;BME280;21711;49.708;18.568;2023-03-03T16:04:57;97584.78;;;-0.41;100.00
31346;BME280;21711;49.708;18.568;2023-03-03T16:38:40;97590.06;;;-0.20;100.00
31346;BME280;21711;49.708;18.568;2023-03-03T16:41:35;97593.22;;;-0.32;100.00
31346;BME280;21711;49.708;18.568;2023-03-03T16:44:15;97593.00;;;-0.37;100.00
31346;BME280;21711;49.708;18.568;2023-03-03T16:46:47;97598.41;;;-0.32;100.00
31346;BME280;21711;49.708;18.568;2023-03-03T16:52:02;97603.44;;;-0.30;100.00
31346;BME280;21711;49.708;18.568;2023-03-03T16:54:56;97599.69;;;-0.14;100.00
31346;BME280;21711;49.708;18.568;2023-03-03T16:57:56;97606.41;;;-0.40;100.00
31346;BME280;21711;49.708;18.568;2023-03-03T17:04:00;97603.44;;;-0.23;100.00
31346;BME280;21711;49.708;18.568;2023-03-03T17:20:50;97616.13;;;-0.84;100.00
31346;BME280;21711;49.708;18.568;2023-03-03T17:26:36;97612.09;;;-0.94;100.00
31346;BME280;21711;49.708;18.568;2023-03-03T17:35:46;97602.13;;;-0.48;100.00
31346;BME280;21711;49.708;18.568;2023-03-03T17:41:25;97607.53;;;-0.85;100.00
31346;BME280;21711;49.708;18.568;2023-03-03T17:46:53;97604.75;;;-0.83;100.00
31346;BME280;21711;49.708;18.568;2023-03-03T17:55:38;97611.28;;;-0.59;100.00
31346;BME280;21711;49.708;18.568;2023-03-03T18:13:45;97620.19;;;-1.03;100.00
31346;BME280;21711;49.708;18.568;2023-03-03T18:21:57;97635.81;;;-1.25;100.00
31346;BME280;21711;49.708;18.568;2023-03-03T18:30:21;97629.78;;;-1.04;100.00
31346;BME280;21711;49.708;18.568;2023-03-03T18:33:01;97638.94;;;-1.30;100.00